CheckWX is a tool to help pilots better visualize weather data.  It is not intended as a substitute for an official pre-flight weather briefing.

09:23:49 UTC

KOQU METAR
Quonset State Airport
North Kingstown, Rhode Island, USA
Current

13 hours ago

KOQU 302050Z 28013KT 10SM FEW045 27/13 A2980 RMK LAST
Observed
May-30 @ 20:50 UTC
Wind
  • 280° at 13 KTS
Visibility
Flight Rules
VFR
Cloud Levels
  • Few at 4,500' AGL
Temperature
27°C / 81°F
Dewpoint
13°C / 55°F
Humidity
42%
Altimeter
29.8" Hg
Pressure
1009.12 hPa
Previous

14 hours ago

KOQU 301950Z 31017KT 10SM FEW043 27/14 A2980
Observed
May-30 @ 19:50 UTC
Wind
  • 310° at 17 KTS
Visibility
Flight Rules
VFR
Cloud Levels
  • Few at 4,300' AGL
Temperature
27°C / 81°F
Dewpoint
14°C / 57°F
Humidity
45%
Altimeter
29.8" Hg
Pressure
1009.12 hPa
Previous

15 hours ago

KOQU 301850Z 29015KT 10SM SCT043 BKN250 26/15 A2981
Observed
May-30 @ 18:50 UTC
Wind
  • 290° at 15 KTS
Visibility
Flight Rules
VFR
Cloud Levels
  • Scattered at 4,300' AGL
  • Broken at 25,000' AGL
Temperature
26°C / 79°F
Dewpoint
15°C / 59°F
Humidity
51%
Altimeter
29.81" Hg
Pressure
1009.52 hPa